createdAt,value
2019-02-20T00:04:03.331Z,2.93
2019-02-20T00:14:08.456Z,2.80
2019-02-20T00:24:09.116Z,3.17
2019-02-20T00:34:09.726Z,2.97
2019-02-20T00:44:12.383Z,2.93
2019-02-20T00:54:14.085Z,3.20
2019-02-20T01:04:15.764Z,2.63
2019-02-20T01:14:18.640Z,2.80
2019-02-20T01:24:24.721Z,2.90
2019-02-20T01:34:25.367Z,3.00
2019-02-20T01:44:27.002Z,3.23
2019-02-20T01:54:28.767Z,3.73
2019-02-20T04:09:32.968Z,3.23
2019-02-20T04:19:33.589Z,2.67
2019-02-20T04:29:34.231Z,2.63
2019-02-20T04:39:35.109Z,4.00
2019-02-20T04:49:35.811Z,3.07
2019-02-20T04:59:37.926Z,4.57
2019-02-20T05:09:39.851Z,4.30
2019-02-20T05:19:40.909Z,3.50
2019-02-20T05:29:41.800Z,4.33
2019-02-20T05:39:42.442Z,5.70
2019-02-20T05:49:43.149Z,5.73
2019-02-20T05:59:45.248Z,6.80
2019-02-20T06:09:52.706Z,6.20
2019-02-20T06:19:54.634Z,6.33
2019-02-20T06:29:55.296Z,6.30
2019-02-20T06:39:59.055Z,6.07
2019-02-20T06:50:01.218Z,5.30
2019-02-20T07:00:04.640Z,5.00
2019-02-20T07:10:26.548Z,4.73
2019-02-20T07:20:37.393Z,5.37
2019-02-20T07:30:38.110Z,8.50
2019-02-20T07:40:38.800Z,6.60
2019-02-20T07:50:40.748Z,7.13
2019-02-20T08:00:42.426Z,5.53
2019-02-20T08:10:44.462Z,5.20
2019-02-20T08:20:45.393Z,8.93
2019-02-20T08:30:46.368Z,9.60
2019-02-20T08:40:47.434Z,9.13
2019-02-20T08:50:48.118Z,5.17
2019-02-20T09:00:48.853Z,5.70
2019-02-20T09:10:52.796Z,6.50
2019-02-20T09:20:53.577Z,7.00
2019-02-20T09:30:54.528Z,6.43
2019-02-20T09:40:55.205Z,9.00
2019-02-20T09:50:56.114Z,6.87
2019-02-20T10:00:56.997Z,7.67
2019-02-20T10:10:57.697Z,10.30
2019-02-20T10:20:58.671Z,7.67
2019-02-20T10:30:59.653Z,9.83
2019-02-20T10:41:00.704Z,10.10
2019-02-20T10:51:02.557Z,11.50
2019-02-20T11:01:03.566Z,13.20
2019-02-20T11:11:04.578Z,13.10
2019-02-20T11:21:05.405Z,12.13
2019-02-20T11:31:06.351Z,10.90
2019-02-20T11:41:07.513Z,11.50
2019-02-20T11:51:08.506Z,9.10
2019-02-20T12:01:09.119Z,8.40
2019-02-20T12:11:09.795Z,9.20
2019-02-20T12:21:10.840Z,9.00
2019-02-20T12:31:12.603Z,6.40
2019-02-20T12:41:13.244Z,6.40
2019-02-20T12:51:13.949Z,7.23
2019-02-20T13:01:14.850Z,6.10
2019-02-20T13:11:15.836Z,5.60
2019-02-20T13:21:16.816Z,6.43
2019-02-20T13:31:17.500Z,6.67
2019-02-20T13:41:18.125Z,4.63
2019-02-20T13:51:18.842Z,6.67
2019-02-20T14:01:20.091Z,5.67
2019-02-20T14:11:20.738Z,5.50
2019-02-20T14:21:21.674Z,3.83
2019-02-20T14:31:22.749Z,4.60
2019-02-20T14:41:23.631Z,4.40
2019-02-20T14:51:24.397Z,4.03
2019-02-20T15:01:25.318Z,4.00
2019-02-20T15:11:26.027Z,3.17
2019-02-20T15:21:26.841Z,3.30
2019-02-20T15:31:33.685Z,2.80
2019-02-20T15:41:32.859Z,3.10
2019-02-20T15:51:33.534Z,2.77
2019-02-20T16:01:34.545Z,3.07
2019-02-20T16:11:35.718Z,2.60
2019-02-20T16:21:36.376Z,3.60
2019-02-20T16:31:37.325Z,3.20
2019-02-20T16:41:38.276Z,3.57
2019-02-20T16:51:39.260Z,4.30
2019-02-20T17:01:39.938Z,3.30
2019-02-20T17:11:40.720Z,3.00
2019-02-20T17:21:41.411Z,3.50
2019-02-20T17:31:42.098Z,3.23
2019-02-20T17:41:42.816Z,3.23
2019-02-20T17:51:43.714Z,3.23
2019-02-20T18:01:44.665Z,2.90
2019-02-20T18:11:46.133Z,3.97
2019-02-20T18:21:46.996Z,3.93
2019-02-20T18:31:47.992Z,3.80
2019-02-20T18:41:48.618Z,7.30
2019-02-20T18:51:49.352Z,4.17
2019-02-20T19:01:50.159Z,4.53
2019-02-20T19:12:09.337Z,4.57
2019-02-20T19:22:34.689Z,6.40
2019-02-20T19:32:48.287Z,4.50
2019-02-20T19:43:07.812Z,19.40
2019-02-20T19:53:15.185Z,8.57
2019-02-20T20:03:31.872Z,7.97
2019-02-20T20:13:42.566Z,6.07
2019-02-20T20:24:17.751Z,5.67
2019-02-20T20:34:40.553Z,5.50
2019-02-20T20:45:12.633Z,7.30
2019-02-20T20:55:38.225Z,6.10
2019-02-20T21:05:59.406Z,5.57
2019-02-20T21:16:06.906Z,17.30
2019-02-20T21:26:20.194Z,13.80
2019-02-20T21:36:27.674Z,9.97
2019-02-20T21:46:49.823Z,8.87
2019-02-20T21:56:54.245Z,25.90
2019-02-20T22:07:13.617Z,23.20
2019-02-20T22:17:27.369Z,12.93
2019-02-20T22:27:33.237Z,12.87
2019-02-20T22:37:59.176Z,8.83
2019-02-20T22:48:23.717Z,10.47
2019-02-20T22:58:37.064Z,9.67
2019-02-20T23:09:05.967Z,8.10
2019-02-20T23:19:06.722Z,8.17
2019-02-20T23:29:07.643Z,11.30
2019-02-20T23:39:08.540Z,11.47
2019-02-20T23:49:09.180Z,13.40
2019-02-20T23:59:09.865Z,10.47
